sensor_id;sensor_type;location;lat;lon;timestamp;P1;durP1;ratioP1;P2;durP2;ratioP2
75408;SDS011;63979;55.644;37.734;2023-09-19T00:01:38;34.83;;;17.38;;
75408;SDS011;63979;55.644;37.734;2023-09-19T00:06:39;36.45;;;18.42;;
75408;SDS011;63979;55.644;37.734;2023-09-19T00:11:40;29.20;;;18.95;;
75408;SDS011;63979;55.644;37.734;2023-09-19T00:16:42;37.10;;;20.35;;
75408;SDS011;63979;55.644;37.734;2023-09-19T00:21:43;33.97;;;20.30;;
75408;SDS011;63979;55.644;37.734;2023-09-19T00:26:46;34.38;;;20.63;;
75408;SDS011;63979;55.644;37.734;2023-09-19T00:31:47;33.45;;;20.30;;
75408;SDS011;63979;55.644;37.734;2023-09-19T00:36:50;35.70;;;19.10;;
75408;SDS011;63979;55.644;37.734;2023-09-19T00:41:54;45.00;;;25.60;;
75408;SDS011;63979;55.644;37.734;2023-09-19T00:46:55;41.33;;;26.65;;
75408;SDS011;63979;55.644;37.734;2023-09-19T00:51:56;43.90;;;26.98;;
75408;SDS011;63979;55.644;37.734;2023-09-19T00:56:58;41.63;;;25.08;;
75408;SDS011;63979;55.644;37.734;2023-09-19T01:01:59;45.50;;;24.27;;
75408;SDS011;63979;55.644;37.734;2023-09-19T01:07:00;30.52;;;18.83;;
75408;SDS011;63979;55.644;37.734;2023-09-19T01:12:02;28.90;;;17.88;;
75408;SDS011;63979;55.644;37.734;2023-09-19T01:17:14;27.23;;;15.70;;
75408;SDS011;63979;55.644;37.734;2023-09-19T01:22:44;25.35;;;16.13;;
75408;SDS011;63979;55.644;37.734;2023-09-19T01:33:19;23.55;;;13.98;;
75408;SDS011;63979;55.644;37.734;2023-09-19T01:38:20;23.98;;;14.35;;
75408;SDS011;63979;55.644;37.734;2023-09-19T01:43:25;20.52;;;13.50;;
75408;SDS011;63979;55.644;37.734;2023-09-19T01:53:36;23.65;;;13.50;;
75408;SDS011;63979;55.644;37.734;2023-09-19T01:58:46;23.88;;;15.13;;
75408;SDS011;63979;55.644;37.734;2023-09-19T02:03:51;22.08;;;14.13;;
75408;SDS011;63979;55.644;37.734;2023-09-19T02:13:55;26.58;;;15.73;;
75408;SDS011;63979;55.644;37.734;2023-09-19T02:18:57;25.92;;;15.23;;
75408;SDS011;63979;55.644;37.734;2023-09-19T02:24:00;25.10;;;15.88;;
75408;SDS011;63979;55.644;37.734;2023-09-19T02:29:01;26.98;;;15.40;;
75408;SDS011;63979;55.644;37.734;2023-09-19T02:34:08;23.63;;;15.05;;
75408;SDS011;63979;55.644;37.734;2023-09-19T02:39:09;27.70;;;16.25;;
75408;SDS011;63979;55.644;37.734;2023-09-19T02:44:11;25.35;;;14.85;;
75408;SDS011;63979;55.644;37.734;2023-09-19T02:49:13;26.83;;;15.65;;
75408;SDS011;63979;55.644;37.734;2023-09-19T02:54:14;23.95;;;14.60;;
75408;SDS011;63979;55.644;37.734;2023-09-19T02:59:19;26.60;;;15.75;;
75408;SDS011;63979;55.644;37.734;2023-09-19T03:04:21;28.60;;;16.40;;
75408;SDS011;63979;55.644;37.734;2023-09-19T03:09:22;26.90;;;16.65;;
75408;SDS011;63979;55.644;37.734;2023-09-19T03:14:23;28.17;;;16.13;;
75408;SDS011;63979;55.644;37.734;2023-09-19T03:19:25;26.27;;;15.48;;
75408;SDS011;63979;55.644;37.734;2023-09-19T03:24:27;31.35;;;16.77;;
75408;SDS011;63979;55.644;37.734;2023-09-19T03:29:28;23.80;;;14.20;;
75408;SDS011;63979;55.644;37.734;2023-09-19T03:34:29;20.67;;;13.05;;
75408;SDS011;63979;55.644;37.734;2023-09-19T03:39:30;17.95;;;11.70;;
75408;SDS011;63979;55.644;37.734;2023-09-19T03:44:31;18.70;;;12.48;;
75408;SDS011;63979;55.644;37.734;2023-09-19T03:49:33;20.27;;;12.93;;
75408;SDS011;63979;55.644;37.734;2023-09-19T03:54:34;19.08;;;11.88;;
75408;SDS011;63979;55.644;37.734;2023-09-19T03:59:35;18.52;;;11.73;;
75408;SDS011;63979;55.644;37.734;2023-09-19T04:04:36;20.30;;;11.73;;
75408;SDS011;63979;55.644;37.734;2023-09-19T04:09:38;18.30;;;10.93;;
75408;SDS011;63979;55.644;37.734;2023-09-19T04:14:38;18.05;;;10.43;;
75408;SDS011;63979;55.644;37.734;2023-09-19T04:19:40;18.63;;;10.80;;
75408;SDS011;63979;55.644;37.734;2023-09-19T04:24:41;16.30;;;11.27;;
75408;SDS011;63979;55.644;37.734;2023-09-19T04:29:43;16.27;;;10.60;;
75408;SDS011;63979;55.644;37.734;2023-09-19T04:34:44;15.82;;;11.40;;
75408;SDS011;63979;55.644;37.734;2023-09-19T04:39:45;18.67;;;11.40;;
75408;SDS011;63979;55.644;37.734;2023-09-19T04:44:46;17.45;;;11.25;;
75408;SDS011;63979;55.644;37.734;2023-09-19T04:49:49;18.67;;;10.07;;
75408;SDS011;63979;55.644;37.734;2023-09-19T04:54:50;18.98;;;11.32;;
75408;SDS011;63979;55.644;37.734;2023-09-19T04:59:51;20.23;;;12.18;;
75408;SDS011;63979;55.644;37.734;2023-09-19T05:04:52;20.48;;;12.20;;
75408;SDS011;63979;55.644;37.734;2023-09-19T05:09:54;21.20;;;12.30;;
75408;SDS011;63979;55.644;37.734;2023-09-19T05:14:55;21.67;;;12.38;;
75408;SDS011;63979;55.644;37.734;2023-09-19T05:19:56;23.55;;;12.77;;
75408;SDS011;63979;55.644;37.734;2023-09-19T05:25:24;19.50;;;13.18;;
75408;SDS011;63979;55.644;37.734;2023-09-19T05:30:26;20.85;;;13.00;;
75408;SDS011;63979;55.644;37.734;2023-09-19T05:35:30;19.23;;;12.95;;
75408;SDS011;63979;55.644;37.734;2023-09-19T05:40:32;19.17;;;12.70;;
75408;SDS011;63979;55.644;37.734;2023-09-19T05:45:33;19.70;;;12.10;;
75408;SDS011;63979;55.644;37.734;2023-09-19T05:55:36;18.08;;;12.13;;
75408;SDS011;63979;55.644;37.734;2023-09-19T06:00:37;15.68;;;10.25;;
75408;SDS011;63979;55.644;37.734;2023-09-19T06:05:39;13.35;;;9.35;;
75408;SDS011;63979;55.644;37.734;2023-09-19T06:10:41;17.08;;;10.48;;
75408;SDS011;63979;55.644;37.734;2023-09-19T06:15:42;17.98;;;10.90;;
75408;SDS011;63979;55.644;37.734;2023-09-19T06:20:44;15.77;;;11.07;;
75408;SDS011;63979;55.644;37.734;2023-09-19T06:25:45;14.38;;;10.18;;
75408;SDS011;63979;55.644;37.734;2023-09-19T06:30:46;13.40;;;9.65;;
75408;SDS011;63979;55.644;37.734;2023-09-19T06:35:48;18.17;;;11.38;;
75408;SDS011;63979;55.644;37.734;2023-09-19T06:40:49;16.92;;;10.02;;
75408;SDS011;63979;55.644;37.734;2023-09-19T06:45:50;15.73;;;10.77;;
75408;SDS011;63979;55.644;37.734;2023-09-19T06:50:58;16.05;;;10.63;;
75408;SDS011;63979;55.644;37.734;2023-09-19T06:56:05;14.65;;;10.40;;
75408;SDS011;63979;55.644;37.734;2023-09-19T07:01:06;15.20;;;10.00;;
75408;SDS011;63979;55.644;37.734;2023-09-19T07:06:08;11.60;;;9.65;;
75408;SDS011;63979;55.644;37.734;2023-09-19T07:11:09;11.35;;;9.95;;
75408;SDS011;63979;55.644;37.734;2023-09-19T07:16:13;13.85;;;10.55;;
75408;SDS011;63979;55.644;37.734;2023-09-19T07:21:27;13.45;;;9.48;;
75408;SDS011;63979;55.644;37.734;2023-09-19T07:26:28;15.10;;;10.40;;
75408;SDS011;63979;55.644;37.734;2023-09-19T07:31:29;15.02;;;10.25;;
75408;SDS011;63979;55.644;37.734;2023-09-19T07:36:31;12.85;;;9.73;;
75408;SDS011;63979;55.644;37.734;2023-09-19T07:41:34;12.88;;;9.05;;
75408;SDS011;63979;55.644;37.734;2023-09-19T07:46:35;17.30;;;9.60;;
75408;SDS011;63979;55.644;37.734;2023-09-19T07:51:36;12.70;;;9.20;;
75408;SDS011;63979;55.644;37.734;2023-09-19T07:56:38;14.20;;;9.77;;
75408;SDS011;63979;55.644;37.734;2023-09-19T08:01:39;12.70;;;10.10;;
75408;SDS011;63979;55.644;37.734;2023-09-19T08:06:41;21.27;;;10.27;;
75408;SDS011;63979;55.644;37.734;2023-09-19T08:16:43;12.45;;;8.82;;
75408;SDS011;63979;55.644;37.734;2023-09-19T08:21:44;13.32;;;10.40;;
75408;SDS011;63979;55.644;37.734;2023-09-19T08:26:48;15.15;;;10.45;;
75408;SDS011;63979;55.644;37.734;2023-09-19T08:31:49;13.90;;;8.77;;
75408;SDS011;63979;55.644;37.734;2023-09-19T08:36:51;13.30;;;9.43;;
75408;SDS011;63979;55.644;37.734;2023-09-19T08:41:59;12.75;;;10.32;;
75408;SDS011;63979;55.644;37.734;2023-09-19T08:47:06;16.60;;;11.15;;
75408;SDS011;63979;55.644;37.734;2023-09-19T08:52:36;13.63;;;10.40;;
75408;SDS011;63979;55.644;37.734;2023-09-19T08:57:37;15.23;;;10.93;;
75408;SDS011;63979;55.644;37.734;2023-09-19T09:02:42;16.33;;;10.23;;
75408;SDS011;63979;55.644;37.734;2023-09-19T09:07:44;14.55;;;10.45;;
75408;SDS011;63979;55.644;37.734;2023-09-19T09:12:45;12.63;;;11.00;;
75408;SDS011;63979;55.644;37.734;2023-09-19T09:17:47;12.98;;;11.38;;
75408;SDS011;63979;55.644;37.734;2023-09-19T09:22:54;13.77;;;10.40;;
75408;SDS011;63979;55.644;37.734;2023-09-19T09:27:59;15.48;;;10.73;;
75408;SDS011;63979;55.644;37.734;2023-09-19T09:33:09;15.25;;;10.48;;
75408;SDS011;63979;55.644;37.734;2023-09-19T09:38:15;14.20;;;9.18;;
75408;SDS011;63979;55.644;37.734;2023-09-19T09:43:26;13.40;;;9.65;;
75408;SDS011;63979;55.644;37.734;2023-09-19T09:48:29;12.50;;;8.85;;
75408;SDS011;63979;55.644;37.734;2023-09-19T09:53:32;13.00;;;9.60;;
75408;SDS011;63979;55.644;37.734;2023-09-19T09:58:33;12.75;;;10.13;;
75408;SDS011;63979;55.644;37.734;2023-09-19T10:03:56;14.65;;;9.93;;
75408;SDS011;63979;55.644;37.734;2023-09-19T10:09:07;13.07;;;10.02;;
75408;SDS011;63979;55.644;37.734;2023-09-19T10:14:13;11.90;;;9.43;;
75408;SDS011;63979;55.644;37.734;2023-09-19T10:19:51;15.50;;;9.20;;
75408;SDS011;63979;55.644;37.734;2023-09-19T10:29:52;10.65;;;8.27;;
75408;SDS011;63979;55.644;37.734;2023-09-19T10:34:55;10.73;;;8.05;;
75408;SDS011;63979;55.644;37.734;2023-09-19T10:39:58;11.35;;;8.10;;
75408;SDS011;63979;55.644;37.734;2023-09-19T10:44:59;12.20;;;8.65;;
75408;SDS011;63979;55.644;37.734;2023-09-19T10:50:06;10.23;;;7.78;;
75408;SDS011;63979;55.644;37.734;2023-09-19T10:55:15;11.32;;;8.43;;
75408;SDS011;63979;55.644;37.734;2023-09-19T11:00:23;12.77;;;9.13;;
75408;SDS011;63979;55.644;37.734;2023-09-19T11:05:28;11.63;;;8.43;;
75408;SDS011;63979;55.644;37.734;2023-09-19T11:26:41;11.10;;;9.38;;
75408;SDS011;63979;55.644;37.734;2023-09-19T11:31:48;15.85;;;10.75;;
75408;SDS011;63979;55.644;37.734;2023-09-19T11:36:50;14.57;;;9.52;;
75408;SDS011;63979;55.644;37.734;2023-09-19T11:41:52;10.98;;;9.20;;
75408;SDS011;63979;55.644;37.734;2023-09-19T11:46:57;12.10;;;9.48;;
75408;SDS011;63979;55.644;37.734;2023-09-19T11:52:00;12.25;;;10.00;;
75408;SDS011;63979;55.644;37.734;2023-09-19T11:57:05;11.52;;;9.18;;
75408;SDS011;63979;55.644;37.734;2023-09-19T12:02:07;15.57;;;9.82;;
75408;SDS011;63979;55.644;37.734;2023-09-19T12:07:11;12.43;;;9.60;;
75408;SDS011;63979;55.644;37.734;2023-09-19T12:12:21;16.35;;;9.68;;
75408;SDS011;63979;55.644;37.734;2023-09-19T12:17:37;13.35;;;10.55;;
75408;SDS011;63979;55.644;37.734;2023-09-19T12:22:43;13.13;;;9.70;;
75408;SDS011;63979;55.644;37.734;2023-09-19T12:27:47;11.77;;;10.00;;
75408;SDS011;63979;55.644;37.734;2023-09-19T12:32:53;12.68;;;9.75;;
75408;SDS011;63979;55.644;37.734;2023-09-19T12:37:56;15.45;;;10.82;;
75408;SDS011;63979;55.644;37.734;2023-09-19T12:42:57;14.18;;;10.23;;
75408;SDS011;63979;55.644;37.734;2023-09-19T12:53:45;13.85;;;9.73;;
75408;SDS011;63979;55.644;37.734;2023-09-19T12:58:51;16.05;;;9.32;;
75408;SDS011;63979;55.644;37.734;2023-09-19T13:09:21;14.82;;;9.70;;
75408;SDS011;63979;55.644;37.734;2023-09-19T13:14:29;11.48;;;8.40;;
75408;SDS011;63979;55.644;37.734;2023-09-19T13:19:41;9.15;;;7.63;;
75408;SDS011;63979;55.644;37.734;2023-09-19T13:24:47;10.50;;;8.75;;
75408;SDS011;63979;55.644;37.734;2023-09-19T13:29:52;11.27;;;7.90;;
75408;SDS011;63979;55.644;37.734;2023-09-19T13:34:53;9.55;;;7.05;;
75408;SDS011;63979;55.644;37.734;2023-09-19T13:39:54;15.35;;;8.65;;
75408;SDS011;63979;55.644;37.734;2023-09-19T13:44:55;10.45;;;7.70;;
75408;SDS011;63979;55.644;37.734;2023-09-19T13:49:57;10.27;;;8.00;;
75408;SDS011;63979;55.644;37.734;2023-09-19T13:54:58;11.35;;;8.15;;
75408;SDS011;63979;55.644;37.734;2023-09-19T14:00:00;11.63;;;7.82;;
75408;SDS011;63979;55.644;37.734;2023-09-19T14:05:01;11.80;;;8.30;;
75408;SDS011;63979;55.644;37.734;2023-09-19T14:10:02;10.55;;;7.65;;
75408;SDS011;63979;55.644;37.734;2023-09-19T14:15:08;13.70;;;9.02;;
75408;SDS011;63979;55.644;37.734;2023-09-19T14:20:09;12.50;;;8.68;;
75408;SDS011;63979;55.644;37.734;2023-09-19T14:25:11;16.73;;;9.05;;
75408;SDS011;63979;55.644;37.734;2023-09-19T14:30:12;17.42;;;10.15;;
75408;SDS011;63979;55.644;37.734;2023-09-19T14:35:14;19.40;;;9.02;;
75408;SDS011;63979;55.644;37.734;2023-09-19T14:40:15;11.13;;;8.68;;
75408;SDS011;63979;55.644;37.734;2023-09-19T14:45:18;16.83;;;10.13;;
75408;SDS011;63979;55.644;37.734;2023-09-19T14:50:19;15.23;;;10.15;;
75408;SDS011;63979;55.644;37.734;2023-09-19T14:55:20;11.75;;;9.13;;
75408;SDS011;63979;55.644;37.734;2023-09-19T15:00:23;12.57;;;9.35;;
75408;SDS011;63979;55.644;37.734;2023-09-19T15:05:24;16.33;;;10.27;;
75408;SDS011;63979;55.644;37.734;2023-09-19T15:10:25;12.93;;;8.80;;
75408;SDS011;63979;55.644;37.734;2023-09-19T15:15:26;16.02;;;10.02;;
75408;SDS011;63979;55.644;37.734;2023-09-19T15:25:29;17.40;;;10.00;;
75408;SDS011;63979;55.644;37.734;2023-09-19T15:30:30;17.05;;;10.35;;
75408;SDS011;63979;55.644;37.734;2023-09-19T15:40:32;21.90;;;11.52;;
75408;SDS011;63979;55.644;37.734;2023-09-19T15:45:33;18.70;;;10.93;;
75408;SDS011;63979;55.644;37.734;2023-09-19T15:50:34;17.10;;;10.43;;
75408;SDS011;63979;55.644;37.734;2023-09-19T16:00:40;17.20;;;10.20;;
75408;SDS011;63979;55.644;37.734;2023-09-19T16:10:44;18.25;;;11.77;;
75408;SDS011;63979;55.644;37.734;2023-09-19T16:15:48;15.25;;;11.27;;
75408;SDS011;63979;55.644;37.734;2023-09-19T16:20:49;15.57;;;10.82;;
75408;SDS011;63979;55.644;37.734;2023-09-19T16:26:00;18.88;;;12.23;;
75408;SDS011;63979;55.644;37.734;2023-09-19T16:31:09;18.55;;;11.15;;
75408;SDS011;63979;55.644;37.734;2023-09-19T16:36:10;18.10;;;10.70;;
75408;SDS011;63979;55.644;37.734;2023-09-19T16:41:14;18.35;;;10.95;;
75408;SDS011;63979;55.644;37.734;2023-09-19T16:46:16;14.02;;;9.82;;
75408;SDS011;63979;55.644;37.734;2023-09-19T16:56:18;17.63;;;10.00;;
75408;SDS011;63979;55.644;37.734;2023-09-19T17:01:20;15.45;;;10.20;;
75408;SDS011;63979;55.644;37.734;2023-09-19T17:06:24;16.67;;;9.65;;
75408;SDS011;63979;55.644;37.734;2023-09-19T17:11:26;18.40;;;10.73;;
75408;SDS011;63979;55.644;37.734;2023-09-19T17:16:27;17.52;;;10.73;;
75408;SDS011;63979;55.644;37.734;2023-09-19T17:21:29;17.70;;;10.80;;
75408;SDS011;63979;55.644;37.734;2023-09-19T17:26:31;20.58;;;10.60;;
75408;SDS011;63979;55.644;37.734;2023-09-19T17:31:34;17.85;;;10.50;;
75408;SDS011;63979;55.644;37.734;2023-09-19T17:36:35;17.90;;;10.10;;
75408;SDS011;63979;55.644;37.734;2023-09-19T17:41:36;19.27;;;10.40;;
75408;SDS011;63979;55.644;37.734;2023-09-19T17:46:37;16.00;;;9.60;;
75408;SDS011;63979;55.644;37.734;2023-09-19T17:51:39;16.98;;;10.38;;
75408;SDS011;63979;55.644;37.734;2023-09-19T17:56:40;18.00;;;9.43;;
75408;SDS011;63979;55.644;37.734;2023-09-19T18:01:41;15.20;;;8.75;;
75408;SDS011;63979;55.644;37.734;2023-09-19T18:06:44;23.17;;;9.63;;
75408;SDS011;63979;55.644;37.734;2023-09-19T18:11:45;22.63;;;9.57;;
75408;SDS011;63979;55.644;37.734;2023-09-19T18:16:46;16.20;;;8.70;;
75408;SDS011;63979;55.644;37.734;2023-09-19T18:21:48;13.90;;;9.25;;
75408;SDS011;63979;55.644;37.734;2023-09-19T18:26:51;14.13;;;8.75;;
75408;SDS011;63979;55.644;37.734;2023-09-19T18:31:52;15.48;;;8.77;;
75408;SDS011;63979;55.644;37.734;2023-09-19T18:36:53;16.30;;;9.07;;
75408;SDS011;63979;55.644;37.734;2023-09-19T18:41:55;13.65;;;8.65;;
75408;SDS011;63979;55.644;37.734;2023-09-19T18:46:56;12.45;;;9.27;;
75408;SDS011;63979;55.644;37.734;2023-09-19T18:51:57;11.13;;;8.07;;
75408;SDS011;63979;55.644;37.734;2023-09-19T18:56:58;12.02;;;8.05;;
75408;SDS011;63979;55.644;37.734;2023-09-19T19:01:59;15.65;;;8.90;;
75408;SDS011;63979;55.644;37.734;2023-09-19T19:07:00;13.95;;;9.43;;
75408;SDS011;63979;55.644;37.734;2023-09-19T19:12:03;16.27;;;9.52;;
75408;SDS011;63979;55.644;37.734;2023-09-19T19:17:05;15.13;;;9.82;;
75408;SDS011;63979;55.644;37.734;2023-09-19T19:22:06;13.77;;;9.05;;
75408;SDS011;63979;55.644;37.734;2023-09-19T19:27:07;14.82;;;9.38;;
75408;SDS011;63979;55.644;37.734;2023-09-19T19:32:08;15.40;;;8.77;;
75408;SDS011;63979;55.644;37.734;2023-09-19T19:37:12;14.20;;;8.77;;
75408;SDS011;63979;55.644;37.734;2023-09-19T19:42:13;17.73;;;9.88;;
75408;SDS011;63979;55.644;37.734;2023-09-19T19:47:14;13.75;;;9.68;;
75408;SDS011;63979;55.644;37.734;2023-09-19T19:52:16;12.40;;;8.90;;
75408;SDS011;63979;55.644;37.734;2023-09-19T19:57:17;16.02;;;9.68;;
75408;SDS011;63979;55.644;37.734;2023-09-19T20:02:19;11.48;;;9.95;;
75408;SDS011;63979;55.644;37.734;2023-09-19T20:07:21;13.77;;;9.68;;
75408;SDS011;63979;55.644;37.734;2023-09-19T20:12:23;14.35;;;8.38;;
75408;SDS011;63979;55.644;37.734;2023-09-19T20:17:25;14.57;;;9.98;;
75408;SDS011;63979;55.644;37.734;2023-09-19T20:22:26;13.35;;;7.95;;
75408;SDS011;63979;55.644;37.734;2023-09-19T20:27:27;12.98;;;8.85;;
75408;SDS011;63979;55.644;37.734;2023-09-19T20:32:28;13.70;;;9.55;;
75408;SDS011;63979;55.644;37.734;2023-09-19T20:37:29;14.82;;;9.60;;
75408;SDS011;63979;55.644;37.734;2023-09-19T20:42:31;12.27;;;8.50;;
75408;SDS011;63979;55.644;37.734;2023-09-19T20:47:32;13.07;;;9.30;;
75408;SDS011;63979;55.644;37.734;2023-09-19T20:52:33;21.15;;;9.50;;
75408;SDS011;63979;55.644;37.734;2023-09-19T20:57:36;15.38;;;9.30;;
75408;SDS011;63979;55.644;37.734;2023-09-19T21:02:38;16.17;;;9.75;;
75408;SDS011;63979;55.644;37.734;2023-09-19T21:07:39;13.23;;;9.20;;
75408;SDS011;63979;55.644;37.734;2023-09-19T21:12:44;12.63;;;9.20;;
75408;SDS011;63979;55.644;37.734;2023-09-19T21:17:45;12.55;;;8.82;;
75408;SDS011;63979;55.644;37.734;2023-09-19T21:22:46;15.35;;;8.50;;
75408;SDS011;63979;55.644;37.734;2023-09-19T21:27:48;14.50;;;8.20;;
75408;SDS011;63979;55.644;37.734;2023-09-19T21:32:49;14.38;;;8.95;;
75408;SDS011;63979;55.644;37.734;2023-09-19T21:37:50;13.13;;;8.88;;
75408;SDS011;63979;55.644;37.734;2023-09-19T21:42:51;14.30;;;8.93;;
75408;SDS011;63979;55.644;37.734;2023-09-19T21:47:52;12.30;;;9.02;;
75408;SDS011;63979;55.644;37.734;2023-09-19T21:52:53;12.70;;;8.63;;
75408;SDS011;63979;55.644;37.734;2023-09-19T21:57:54;17.25;;;9.65;;
75408;SDS011;63979;55.644;37.734;2023-09-19T22:02:56;12.32;;;8.48;;
75408;SDS011;63979;55.644;37.734;2023-09-19T22:07:57;15.82;;;10.07;;
75408;SDS011;63979;55.644;37.734;2023-09-19T22:12:59;13.88;;;8.80;;
75408;SDS011;63979;55.644;37.734;2023-09-19T22:17:59;12.40;;;9.32;;
75408;SDS011;63979;55.644;37.734;2023-09-19T22:23:01;16.33;;;9.20;;
75408;SDS011;63979;55.644;37.734;2023-09-19T22:28:04;14.20;;;8.68;;
75408;SDS011;63979;55.644;37.734;2023-09-19T22:33:06;15.00;;;9.45;;
75408;SDS011;63979;55.644;37.734;2023-09-19T22:38:10;12.60;;;9.45;;
75408;SDS011;63979;55.644;37.734;2023-09-19T22:43:12;18.30;;;9.85;;
75408;SDS011;63979;55.644;37.734;2023-09-19T22:48:15;13.30;;;8.77;;
75408;SDS011;63979;55.644;37.734;2023-09-19T22:53:16;12.00;;;9.20;;
75408;SDS011;63979;55.644;37.734;2023-09-19T22:58:21;14.98;;;8.90;;
75408;SDS011;63979;55.644;37.734;2023-09-19T23:03:23;12.05;;;8.38;;
75408;SDS011;63979;55.644;37.734;2023-09-19T23:08:26;10.50;;;8.15;;
75408;SDS011;63979;55.644;37.734;2023-09-19T23:13:26;12.55;;;7.70;;
75408;SDS011;63979;55.644;37.734;2023-09-19T23:18:31;13.05;;;8.85;;
75408;SDS011;63979;55.644;37.734;2023-09-19T23:23:33;15.38;;;8.10;;
75408;SDS011;63979;55.644;37.734;2023-09-19T23:28:35;13.43;;;8.90;;
75408;SDS011;63979;55.644;37.734;2023-09-19T23:33:43;12.10;;;8.02;;
75408;SDS011;63979;55.644;37.734;2023-09-19T23:38:44;11.77;;;8.30;;
75408;SDS011;63979;55.644;37.734;2023-09-19T23:43:47;13.73;;;8.35;;
75408;SDS011;63979;55.644;37.734;2023-09-19T23:48:53;14.50;;;9.05;;
75408;SDS011;63979;55.644;37.734;2023-09-19T23:53:54;10.65;;;7.80;;
75408;SDS011;63979;55.644;37.734;2023-09-19T23:58:55;12.02;;;8.40;;
